createdAt,value
2024-02-02T00:01:27.204Z,6.55
2024-02-02T00:03:55.427Z,6.50
2024-02-02T00:06:24.257Z,6.48
2024-02-02T00:08:52.434Z,6.50
2024-02-02T00:11:20.739Z,6.51
2024-02-02T00:13:49.591Z,6.50
2024-02-02T00:16:17.670Z,6.51
2024-02-02T00:18:46.166Z,6.52
2024-02-02T00:21:14.173Z,6.49
2024-02-02T00:23:42.275Z,6.43
2024-02-02T00:26:10.235Z,6.40
2024-02-02T00:28:38.134Z,6.40
2024-02-02T00:31:06.120Z,6.38
2024-02-02T00:33:34.303Z,6.32
2024-02-02T00:36:04.271Z,6.23
2024-02-02T00:38:32.307Z,6.18
2024-02-02T00:41:00.362Z,6.12
2024-02-02T00:43:28.822Z,6.10
2024-02-02T00:45:56.754Z,6.06
2024-02-02T00:48:25.106Z,6.06
2024-02-02T00:50:53.161Z,6.05
2024-02-02T00:53:21.083Z,6.02
2024-02-02T00:55:49.074Z,5.97
2024-02-02T00:58:17.295Z,5.94
2024-02-02T01:00:45.367Z,5.94
2024-02-02T01:03:13.520Z,5.95
2024-02-02T01:05:41.775Z,5.95
2024-02-02T01:08:10.033Z,5.91
2024-02-02T01:10:38.102Z,5.86
2024-02-02T01:13:06.934Z,5.81
2024-02-02T01:15:36.088Z,5.77
2024-02-02T01:18:08.684Z,5.72
2024-02-02T01:20:36.876Z,5.73
2024-02-02T01:23:04.961Z,5.74
2024-02-02T01:25:33.537Z,5.76
2024-02-02T01:28:01.766Z,5.79
2024-02-02T01:30:31.265Z,5.81
2024-02-02T01:32:59.539Z,5.80
2024-02-02T01:35:27.878Z,5.80
2024-02-02T01:37:56.021Z,5.78
2024-02-02T01:40:24.271Z,5.74
2024-02-02T01:42:52.448Z,5.70
2024-02-02T01:45:20.434Z,5.65
2024-02-02T01:47:48.462Z,5.62
2024-02-02T01:50:16.560Z,5.60
2024-02-02T01:52:44.564Z,5.58
2024-02-02T01:55:13.136Z,5.57
2024-02-02T01:57:41.368Z,5.56
2024-02-02T02:00:10.085Z,5.56
2024-02-02T02:02:38.379Z,5.52
2024-02-02T02:05:06.998Z,5.46
2024-02-02T02:07:35.075Z,5.43
2024-02-02T02:10:05.063Z,5.38
2024-02-02T02:12:33.173Z,5.38
2024-02-02T02:15:01.425Z,5.40
2024-02-02T02:17:29.752Z,5.47
2024-02-02T02:19:59.995Z,5.49
2024-02-02T02:22:28.347Z,5.50
2024-02-02T02:24:56.269Z,5.49
2024-02-02T02:27:24.296Z,5.43
2024-02-02T02:29:52.201Z,5.34
2024-02-02T02:32:20.349Z,5.24
2024-02-02T02:34:48.397Z,5.19
2024-02-02T02:37:17.456Z,5.20
2024-02-02T02:39:45.853Z,5.18
2024-02-02T02:42:14.150Z,5.15
2024-02-02T02:44:43.146Z,5.13
2024-02-02T02:47:12.447Z,5.10
2024-02-02T02:49:41.057Z,5.06
2024-02-02T02:52:09.375Z,5.00
2024-02-02T02:54:37.378Z,4.95
2024-02-02T02:57:06.013Z,4.94
2024-02-02T02:59:34.262Z,4.92
2024-02-02T03:02:02.569Z,4.90
2024-02-02T03:04:30.529Z,4.90
2024-02-02T03:06:59.207Z,4.90
2024-02-02T03:09:27.323Z,4.84
2024-02-02T03:11:55.907Z,4.80
2024-02-02T03:14:24.130Z,4.78
2024-02-02T03:16:52.283Z,4.76
2024-02-02T03:19:20.575Z,4.74
2024-02-02T03:21:48.731Z,4.74
2024-02-02T03:24:17.069Z,4.72
2024-02-02T03:26:44.845Z,4.71
2024-02-02T03:29:13.105Z,4.70
2024-02-02T03:31:41.222Z,4.66
2024-02-02T03:34:09.241Z,4.63
2024-02-02T03:36:37.538Z,4.60
2024-02-02T03:39:05.544Z,4.55
2024-02-02T03:41:33.425Z,4.53
2024-02-02T03:44:01.516Z,4.53
2024-02-02T03:46:29.654Z,4.54
2024-02-02T03:48:59.128Z,4.54
2024-02-02T03:51:27.295Z,4.55
2024-02-02T03:53:55.659Z,4.53
2024-02-02T03:56:23.820Z,4.52
2024-02-02T03:58:51.972Z,4.49
2024-02-02T04:01:20.771Z,4.46
2024-02-02T04:03:49.051Z,4.38
2024-02-02T04:06:17.659Z,4.38
2024-02-02T04:08:45.465Z,4.38
2024-02-02T04:11:13.669Z,4.39
2024-02-02T04:13:43.549Z,4.43
2024-02-02T04:16:11.862Z,4.46
2024-02-02T04:18:39.912Z,4.48
2024-02-02T04:21:08.080Z,4.47
2024-02-02T04:23:36.385Z,4.48
2024-02-02T04:26:04.643Z,4.46
2024-02-02T04:28:32.749Z,4.45
2024-02-02T04:31:01.119Z,4.41
2024-02-02T04:33:29.372Z,4.42
2024-02-02T04:35:57.790Z,4.41
2024-02-02T04:38:25.944Z,4.40
2024-02-02T04:40:54.242Z,4.39
2024-02-02T04:43:22.337Z,4.35
2024-02-02T04:45:50.349Z,4.35
2024-02-02T04:48:18.412Z,4.33
2024-02-02T04:50:47.698Z,4.31
2024-02-02T04:53:17.118Z,4.29
2024-02-02T04:55:45.063Z,4.29
2024-02-02T04:58:13.276Z,4.31
2024-02-02T05:00:41.702Z,4.31
2024-02-02T05:03:09.692Z,4.30
2024-02-02T05:05:38.969Z,4.29
2024-02-02T05:08:07.782Z,4.28
2024-02-02T05:10:35.740Z,4.26
2024-02-02T05:13:03.947Z,4.26
2024-02-02T05:15:32.169Z,4.28
2024-02-02T05:18:00.463Z,4.30
2024-02-02T05:20:29.329Z,4.33
2024-02-02T05:22:57.512Z,4.37
2024-02-02T05:25:25.431Z,4.37
2024-02-02T05:27:53.716Z,4.37
2024-02-02T05:30:22.045Z,4.35
2024-02-02T05:32:51.679Z,4.36
2024-02-02T05:35:19.686Z,4.40
2024-02-02T05:37:48.765Z,4.41
2024-02-02T05:40:16.708Z,4.42
2024-02-02T05:42:46.762Z,4.39
2024-02-02T05:45:14.878Z,4.38
2024-02-02T05:47:43.256Z,4.39
2024-02-02T05:50:11.347Z,4.41
2024-02-02T05:52:40.722Z,4.43
2024-02-02T05:55:09.425Z,4.42
2024-02-02T05:57:37.642Z,4.39
2024-02-02T06:00:07.094Z,4.38
2024-02-02T06:02:35.056Z,4.38
2024-02-02T06:05:04.908Z,4.42
2024-02-02T06:07:32.871Z,4.41
2024-02-02T06:10:01.153Z,4.45
2024-02-02T06:12:29.399Z,4.45
2024-02-02T06:14:58.932Z,4.46
2024-02-02T06:17:27.884Z,4.44
2024-02-02T06:19:56.436Z,4.43
2024-02-02T06:22:25.124Z,4.43
2024-02-02T06:24:53.874Z,4.46
2024-02-02T06:27:24.127Z,4.49
2024-02-02T06:29:53.421Z,4.55
2024-02-02T06:32:23.572Z,4.55
2024-02-02T06:34:57.149Z,4.56
2024-02-02T06:37:26.290Z,4.61
2024-02-02T06:39:56.219Z,4.61
2024-02-02T06:42:27.791Z,4.61
2024-02-02T06:44:58.341Z,4.62
2024-02-02T06:47:26.968Z,4.66
2024-02-02T06:49:55.336Z,4.71
2024-02-02T06:52:23.658Z,4.76
2024-02-02T06:54:51.891Z,4.84
2024-02-02T06:57:21.463Z,4.90
2024-02-02T06:59:51.241Z,4.96
2024-02-02T07:02:22.340Z,4.99
2024-02-02T07:04:50.511Z,5.01
2024-02-02T07:07:19.045Z,5.02
2024-02-02T07:09:57.357Z,5.03
2024-02-02T07:12:37.599Z,5.06
2024-02-02T07:15:07.773Z,5.10
2024-02-02T07:17:38.762Z,5.14
2024-02-02T07:20:27.336Z,5.16
2024-02-02T07:22:58.149Z,5.22
2024-02-02T07:25:27.854Z,5.25
2024-02-02T07:28:01.937Z,5.27
2024-02-02T07:30:46.116Z,5.30
2024-02-02T07:33:26.748Z,5.34
2024-02-02T07:35:58.922Z,5.37
2024-02-02T07:38:35.806Z,5.40
2024-02-02T07:41:13.213Z,5.39
2024-02-02T07:43:41.913Z,5.40
2024-02-02T07:46:14.351Z,5.45
2024-02-02T07:48:48.423Z,5.51
2024-02-02T07:51:19.893Z,5.55
2024-02-02T07:53:53.517Z,5.57
2024-02-02T07:56:25.221Z,5.57
2024-02-02T07:58:53.384Z,5.57
2024-02-02T08:01:21.552Z,5.57
2024-02-02T08:03:49.651Z,5.53
2024-02-02T08:06:18.163Z,5.49
2024-02-02T08:08:46.311Z,5.44
2024-02-02T08:11:14.555Z,5.42
2024-02-02T08:13:43.330Z,5.41
2024-02-02T08:16:11.523Z,5.40
2024-02-02T08:18:40.065Z,5.41
2024-02-02T08:21:09.295Z,5.39
2024-02-02T08:23:39.067Z,5.34
2024-02-02T08:26:08.074Z,5.34
2024-02-02T08:28:45.375Z,5.32
2024-02-02T08:31:20.799Z,5.30
2024-02-02T08:33:49.407Z,5.32
2024-02-02T08:36:19.679Z,5.37
2024-02-02T08:38:48.183Z,5.43
2024-02-02T08:41:17.523Z,5.46
2024-02-02T08:43:48.417Z,5.43
2024-02-02T08:46:20.747Z,5.48
2024-02-02T08:48:51.451Z,5.46
2024-02-02T08:51:39.355Z,5.43
2024-02-02T08:54:47.050Z,5.41
2024-02-02T08:57:27.799Z,5.43
2024-02-02T08:59:56.898Z,5.41
2024-02-02T09:02:36.862Z,5.39
2024-02-02T09:05:20.109Z,5.34
2024-02-02T09:07:54.295Z,5.27
2024-02-02T09:11:00.241Z,5.26
2024-02-02T09:13:33.650Z,5.22
2024-02-02T09:16:01.814Z,5.26
2024-02-02T09:18:37.576Z,5.26
2024-02-02T09:21:08.789Z,5.28
2024-02-02T09:23:37.757Z,5.30
2024-02-02T09:26:16.726Z,5.34
2024-02-02T09:28:47.005Z,5.36
2024-02-02T09:31:22.181Z,5.37
2024-02-02T09:33:54.955Z,5.42
2024-02-02T09:36:30.538Z,5.48
2024-02-02T09:39:03.417Z,5.54
2024-02-02T09:42:02.575Z,5.59
2024-02-02T09:45:12.895Z,5.63
2024-02-02T09:48:14.668Z,5.64
2024-02-02T09:50:56.785Z,5.64
2024-02-02T09:53:50.178Z,5.66
2024-02-02T09:56:26.913Z,5.72
2024-02-02T09:58:59.520Z,5.77
2024-02-02T10:01:30.649Z,5.81
2024-02-02T10:04:09.861Z,5.86
2024-02-02T10:06:55.995Z,5.92
2024-02-02T10:09:43.356Z,5.97
2024-02-02T10:12:30.001Z,6.07
2024-02-02T10:15:37.120Z,6.19
2024-02-02T10:18:22.254Z,6.35
2024-02-02T10:20:56.585Z,6.49
2024-02-02T10:23:30.721Z,6.57
2024-02-02T10:26:32.489Z,6.63
2024-02-02T10:29:30.011Z,6.71
2024-02-02T10:32:18.489Z,6.78
2024-02-02T10:35:23.734Z,6.83
2024-02-02T10:37:55.855Z,6.85
2024-02-02T10:40:44.274Z,6.92
2024-02-02T10:43:34.437Z,7.00
2024-02-02T10:46:41.653Z,7.06
2024-02-02T10:49:31.580Z,7.14
2024-02-02T10:52:24.264Z,7.17
2024-02-02T10:54:53.728Z,7.19
2024-02-02T10:57:28.076Z,7.20
2024-02-02T11:00:38.205Z,7.20
2024-02-02T11:03:16.975Z,7.21
2024-02-02T11:06:19.422Z,7.21
2024-02-02T11:08:57.843Z,7.22
2024-02-02T11:11:28.562Z,7.23
2024-02-02T11:14:13.039Z,7.25
2024-02-02T11:16:43.996Z,7.28
2024-02-02T11:19:18.332Z,7.40
2024-02-02T11:21:46.468Z,7.47
2024-02-02T11:24:36.435Z,7.58
2024-02-02T11:27:15.741Z,7.67
2024-02-02T11:30:08.588Z,7.68
2024-02-02T11:33:02.540Z,7.69
2024-02-02T11:36:04.991Z,7.71
2024-02-02T11:38:46.629Z,7.77
2024-02-02T11:41:23.055Z,7.75
2024-02-02T11:43:53.624Z,7.80
2024-02-02T11:46:27.721Z,7.86
2024-02-02T11:49:08.612Z,7.89
2024-02-02T11:51:38.936Z,7.91
2024-02-02T11:54:19.810Z,7.89
2024-02-02T11:56:52.595Z,7.89
2024-02-02T11:59:33.401Z,7.86
2024-02-02T12:02:14.620Z,7.79
2024-02-02T12:05:05.033Z,7.77
2024-02-02T12:07:44.546Z,7.77
2024-02-02T12:10:18.003Z,7.79
2024-02-02T12:13:03.893Z,7.77
2024-02-02T12:15:35.021Z,7.77
2024-02-02T12:18:04.422Z,7.77
2024-02-02T12:20:52.695Z,7.76
2024-02-02T12:23:22.890Z,7.70
2024-02-02T12:25:52.800Z,7.65
2024-02-02T12:28:20.879Z,7.64
2024-02-02T12:30:49.139Z,7.65
2024-02-02T12:33:20.976Z,7.65
2024-02-02T12:35:48.796Z,7.65
2024-02-02T12:38:24.120Z,7.67
2024-02-02T12:40:52.363Z,7.69
2024-02-02T12:43:25.748Z,7.77
2024-02-02T12:45:58.455Z,7.81
2024-02-02T12:48:26.843Z,7.86
2024-02-02T12:50:55.299Z,7.91
2024-02-02T12:53:23.375Z,7.89
2024-02-02T12:55:52.198Z,7.91
2024-02-02T12:58:25.692Z,7.97
2024-02-02T13:00:54.213Z,8.00
2024-02-02T13:03:25.906Z,8.03
2024-02-02T13:05:57.547Z,8.09
2024-02-02T13:08:39.438Z,8.16
2024-02-02T13:11:19.419Z,8.20
2024-02-02T13:13:47.779Z,8.25
2024-02-02T13:16:31.401Z,8.27
2024-02-02T13:19:00.120Z,8.24
2024-02-02T13:21:28.684Z,8.22
2024-02-02T13:23:58.183Z,8.22
2024-02-02T13:26:40.112Z,8.22
2024-02-02T13:29:11.262Z,8.24
2024-02-02T13:31:42.172Z,8.24
2024-02-02T13:34:15.931Z,8.28
2024-02-02T13:36:45.756Z,8.28
2024-02-02T13:39:20.534Z,8.27
2024-02-02T13:41:49.287Z,8.27
2024-02-02T13:44:24.018Z,8.26
2024-02-02T13:46:52.476Z,8.24
2024-02-02T13:49:24.561Z,8.20
2024-02-02T13:51:54.085Z,8.16
2024-02-02T13:54:23.572Z,8.10
2024-02-02T13:56:52.696Z,8.07
2024-02-02T13:59:22.485Z,8.04
2024-02-02T14:01:53.320Z,7.98
2024-02-02T14:04:27.056Z,7.92
2024-02-02T14:06:55.685Z,7.90
2024-02-02T14:09:24.397Z,7.88
2024-02-02T14:12:02.468Z,7.85
2024-02-02T14:14:31.092Z,7.79
2024-02-02T14:17:03.352Z,7.75
2024-02-02T14:19:32.494Z,7.68
2024-02-02T14:22:09.266Z,7.64
2024-02-02T14:24:50.188Z,7.61
2024-02-02T14:27:18.338Z,7.58
2024-02-02T14:29:46.833Z,7.56
2024-02-02T14:32:14.880Z,7.55
2024-02-02T14:34:43.522Z,7.56
2024-02-02T14:37:16.022Z,7.56
2024-02-02T14:39:44.112Z,7.56
2024-02-02T14:42:12.315Z,7.56
2024-02-02T14:44:42.563Z,7.56
2024-02-02T14:47:13.396Z,7.57
2024-02-02T14:49:42.608Z,7.59
2024-02-02T14:52:14.446Z,7.61
2024-02-02T14:54:42.405Z,7.63
2024-02-02T14:57:10.984Z,7.65
2024-02-02T14:59:43.266Z,7.66
2024-02-02T15:02:14.227Z,7.67
2024-02-02T15:04:42.350Z,7.69
2024-02-02T15:07:11.216Z,7.69
2024-02-02T15:09:40.866Z,7.72
2024-02-02T15:12:09.893Z,7.72
2024-02-02T15:14:38.490Z,7.71
2024-02-02T15:17:06.655Z,7.71
2024-02-02T15:19:34.894Z,7.70
2024-02-02T15:22:03.731Z,7.73
2024-02-02T15:24:33.184Z,7.73
2024-02-02T15:27:03.956Z,7.72
2024-02-02T15:29:33.620Z,7.68
2024-02-02T15:32:02.648Z,7.63
2024-02-02T15:34:31.053Z,7.59
2024-02-02T15:37:02.170Z,7.57
2024-02-02T15:39:37.482Z,7.54
2024-02-02T15:42:08.415Z,7.50
2024-02-02T15:44:36.688Z,7.46
2024-02-02T15:47:05.501Z,7.38
2024-02-02T15:49:33.870Z,7.29
2024-02-02T15:52:04.484Z,7.23
2024-02-02T15:54:36.216Z,7.19
2024-02-02T15:57:06.063Z,7.16
2024-02-02T15:59:34.080Z,7.12
2024-02-02T16:02:05.773Z,7.11
2024-02-02T16:04:33.890Z,7.08
2024-02-02T16:07:05.611Z,7.06
2024-02-02T16:09:41.548Z,7.03
2024-02-02T16:12:13.118Z,7.02
2024-02-02T16:14:52.304Z,7.02
2024-02-02T16:17:20.374Z,7.02
2024-02-02T16:19:50.026Z,7.03
2024-02-02T16:22:20.627Z,7.02
2024-02-02T16:24:48.711Z,7.01
2024-02-02T16:27:17.140Z,6.98
2024-02-02T16:29:45.139Z,6.95
2024-02-02T16:32:13.343Z,6.92
2024-02-02T16:34:43.530Z,6.89
2024-02-02T16:37:11.568Z,6.86
2024-02-02T16:39:43.582Z,6.86
2024-02-02T16:42:14.328Z,6.85
2024-02-02T16:44:45.541Z,6.84
2024-02-02T16:47:14.574Z,6.84
2024-02-02T16:49:48.114Z,6.84
2024-02-02T16:52:16.479Z,6.84
2024-02-02T16:54:46.080Z,6.85
2024-02-02T16:57:14.627Z,6.86
2024-02-02T16:59:44.027Z,6.86
2024-02-02T17:02:12.741Z,6.86
2024-02-02T17:04:43.804Z,6.89
2024-02-02T17:07:12.373Z,6.90
2024-02-02T17:09:45.854Z,6.89
2024-02-02T17:12:16.602Z,6.88
2024-02-02T17:14:45.186Z,6.88
2024-02-02T17:17:13.242Z,6.87
2024-02-02T17:19:44.450Z,6.85
2024-02-02T17:22:12.950Z,6.85
2024-02-02T17:24:42.314Z,6.83
2024-02-02T17:27:11.157Z,6.83
2024-02-02T17:29:43.360Z,6.82
2024-02-02T17:32:16.238Z,6.79
2024-02-02T17:34:49.260Z,6.77
2024-02-02T17:37:17.679Z,6.76
2024-02-02T17:39:46.977Z,6.74
2024-02-02T17:42:15.903Z,6.71
2024-02-02T17:44:44.466Z,6.69
2024-02-02T17:47:12.813Z,6.68
2024-02-02T17:49:46.002Z,6.70
2024-02-02T17:52:26.439Z,6.70
2024-02-02T17:54:55.516Z,6.66
2024-02-02T17:57:24.802Z,6.63
2024-02-02T17:59:53.684Z,6.61
2024-02-02T18:02:23.001Z,6.56
2024-02-02T18:04:51.986Z,6.55
2024-02-02T18:07:30.282Z,6.54
2024-02-02T18:10:04.902Z,6.53
2024-02-02T18:12:39.091Z,6.51
2024-02-02T18:15:09.115Z,6.50
2024-02-02T18:17:38.323Z,6.48
2024-02-02T18:20:08.671Z,6.47
2024-02-02T18:22:37.046Z,6.46
2024-02-02T18:25:05.285Z,6.42
2024-02-02T18:27:34.127Z,6.39
2024-02-02T18:30:02.455Z,6.38
2024-02-02T18:32:30.869Z,6.36
2024-02-02T18:34:59.882Z,6.35
2024-02-02T18:37:30.954Z,6.34
2024-02-02T18:39:59.482Z,6.33
2024-02-02T18:42:27.558Z,6.31
2024-02-02T18:44:55.762Z,6.28
2024-02-02T18:47:23.793Z,6.24
2024-02-02T18:49:53.637Z,6.26
2024-02-02T18:52:22.085Z,6.27
2024-02-02T18:54:50.385Z,6.25
2024-02-02T18:57:19.250Z,6.25
2024-02-02T18:59:47.418Z,6.27
2024-02-02T19:02:15.498Z,6.24
2024-02-02T19:04:45.074Z,6.24
2024-02-02T19:07:14.783Z,6.22
2024-02-02T19:09:42.962Z,6.20
2024-02-02T19:12:11.339Z,6.18
2024-02-02T19:14:39.455Z,6.16
2024-02-02T19:17:07.313Z,6.12
2024-02-02T19:19:35.541Z,6.12
2024-02-02T19:22:04.437Z,6.12
2024-02-02T19:24:32.480Z,6.12
2024-02-02T19:27:00.497Z,6.09
2024-02-02T19:29:28.962Z,6.07
2024-02-02T19:31:59.717Z,6.04
2024-02-02T19:34:30.486Z,6.02
2024-02-02T19:37:02.275Z,6.01
2024-02-02T19:39:32.611Z,5.99
2024-02-02T19:42:02.013Z,5.98
2024-02-02T19:44:30.110Z,5.97
2024-02-02T19:46:58.513Z,5.96
2024-02-02T19:49:26.553Z,5.94
2024-02-02T19:51:55.988Z,5.92
2024-02-02T19:54:26.574Z,5.91
2024-02-02T19:56:54.566Z,5.91
2024-02-02T19:59:23.076Z,5.90
2024-02-02T20:01:51.107Z,5.90
2024-02-02T20:04:19.186Z,5.91
2024-02-02T20:06:47.953Z,5.90
2024-02-02T20:09:17.133Z,5.90
2024-02-02T20:11:45.727Z,5.90
2024-02-02T20:14:14.132Z,5.90
2024-02-02T20:16:43.163Z,5.90
2024-02-02T20:19:11.649Z,5.90
2024-02-02T20:21:39.715Z,5.95
2024-02-02T20:24:08.923Z,5.98
2024-02-02T20:26:37.087Z,6.03
2024-02-02T20:29:05.031Z,6.08
2024-02-02T20:31:34.232Z,6.10
2024-02-02T20:34:02.758Z,6.09
2024-02-02T20:36:32.373Z,6.07
2024-02-02T20:39:00.635Z,6.05
2024-02-02T20:41:29.186Z,6.02
2024-02-02T20:43:59.055Z,5.98
2024-02-02T20:46:27.517Z,5.96
2024-02-02T20:48:56.013Z,5.92
2024-02-02T20:51:24.161Z,5.89
2024-02-02T20:53:52.289Z,5.89
2024-02-02T20:56:20.446Z,5.87
2024-02-02T20:58:48.534Z,5.90
2024-02-02T21:01:16.659Z,5.93
2024-02-02T21:03:45.510Z,5.95
2024-02-02T21:06:14.377Z,5.96
2024-02-02T21:08:45.898Z,5.98
2024-02-02T21:11:13.942Z,5.99
2024-02-02T21:13:41.874Z,6.00
2024-02-02T21:16:10.020Z,6.02
2024-02-02T21:18:38.347Z,6.04
2024-02-02T21:21:07.605Z,6.05
2024-02-02T21:23:35.766Z,6.06
2024-02-02T21:26:03.983Z,6.06
2024-02-02T21:28:31.894Z,6.06
2024-02-02T21:31:00.632Z,6.08
2024-02-02T21:33:28.906Z,6.09
2024-02-02T21:35:58.440Z,6.10
2024-02-02T21:38:27.935Z,6.09
2024-02-02T21:40:55.951Z,6.11
2024-02-02T21:43:24.044Z,6.12
2024-02-02T21:45:52.362Z,6.13
2024-02-02T21:48:23.443Z,6.13
2024-02-02T21:50:53.360Z,6.12
2024-02-02T21:53:21.643Z,6.12
2024-02-02T21:55:49.460Z,6.10
2024-02-02T21:58:17.668Z,6.09
2024-02-02T22:00:47.295Z,6.07
2024-02-02T22:03:15.521Z,6.06
2024-02-02T22:05:43.771Z,6.05
2024-02-02T22:08:12.552Z,6.04
2024-02-02T22:10:40.695Z,6.02
2024-02-02T22:13:10.533Z,6.00
2024-02-02T22:15:39.167Z,5.98
2024-02-02T22:18:11.198Z,5.97
2024-02-02T22:20:46.085Z,5.96
2024-02-02T22:23:15.414Z,5.96
2024-02-02T22:25:43.779Z,5.94
2024-02-02T22:28:12.190Z,5.97
2024-02-02T22:30:41.525Z,5.98
2024-02-02T22:33:10.107Z,6.01
2024-02-02T22:35:38.068Z,6.05
2024-02-02T22:38:06.173Z,6.07
2024-02-02T22:40:34.325Z,6.09
2024-02-02T22:43:02.452Z,6.10
2024-02-02T22:45:30.635Z,6.10
2024-02-02T22:47:58.837Z,6.08
2024-02-02T22:50:27.036Z,6.08
2024-02-02T22:52:56.071Z,6.08
2024-02-02T22:55:24.378Z,6.09
2024-02-02T22:57:52.308Z,6.08
2024-02-02T23:00:22.693Z,6.08
2024-02-02T23:02:50.777Z,6.07
2024-02-02T23:05:19.010Z,6.09
2024-02-02T23:07:48.237Z,6.10
2024-02-02T23:10:16.832Z,6.09
2024-02-02T23:12:46.464Z,6.09
2024-02-02T23:15:14.687Z,6.12
2024-02-02T23:17:42.816Z,6.13
2024-02-02T23:20:11.449Z,6.15
2024-02-02T23:22:39.540Z,6.20
2024-02-02T23:25:08.432Z,6.23
2024-02-02T23:27:38.022Z,6.23
2024-02-02T23:30:07.123Z,6.24
2024-02-02T23:32:35.497Z,6.24
2024-02-02T23:35:04.083Z,6.24
2024-02-02T23:37:32.181Z,6.24
2024-02-02T23:40:02.030Z,6.25
2024-02-02T23:42:31.221Z,6.27
2024-02-02T23:44:59.351Z,6.28
2024-02-02T23:47:28.903Z,6.29
2024-02-02T23:49:57.076Z,6.31
2024-02-02T23:52:25.527Z,6.32
2024-02-02T23:54:54.444Z,6.31
2024-02-02T23:57:25.962Z,6.32
2024-02-02T23:59:54.375Z,6.34
